sensor_id;sensor_type;location;lat;lon;timestamp;P1;durP1;ratioP1;P2;durP2;ratioP2
50301;SDS011;36550;50.472;19.744;2023-05-17T00:01:00;6.20;;;4.40;;
50301;SDS011;36550;50.472;19.744;2023-05-17T00:03:44;5.10;;;4.60;;
50301;SDS011;36550;50.472;19.744;2023-05-17T00:06:28;5.90;;;4.50;;
50301;SDS011;36550;50.472;19.744;2023-05-17T00:09:12;4.80;;;4.30;;
50301;SDS011;36550;50.472;19.744;2023-05-17T00:11:56;5.80;;;4.00;;
50301;SDS011;36550;50.472;19.744;2023-05-17T00:14:40;5.20;;;4.30;;
50301;SDS011;36550;50.472;19.744;2023-05-17T00:17:24;5.00;;;3.90;;
50301;SDS011;36550;50.472;19.744;2023-05-17T00:20:08;6.50;;;4.50;;
50301;SDS011;36550;50.472;19.744;2023-05-17T00:22:53;5.00;;;3.90;;
50301;SDS011;36550;50.472;19.744;2023-05-17T00:25:37;5.50;;;4.40;;
50301;SDS011;36550;50.472;19.744;2023-05-17T00:28:20;6.40;;;3.70;;
50301;SDS011;36550;50.472;19.744;2023-05-17T00:31:04;4.30;;;3.90;;
50301;SDS011;36550;50.472;19.744;2023-05-17T00:33:49;6.10;;;4.50;;
50301;SDS011;36550;50.472;19.744;2023-05-17T00:36:33;4.90;;;4.40;;
50301;SDS011;36550;50.472;19.744;2023-05-17T00:39:16;5.70;;;5.00;;
50301;SDS011;36550;50.472;19.744;2023-05-17T00:42:00;6.20;;;4.70;;
50301;SDS011;36550;50.472;19.744;2023-05-17T00:44:44;6.60;;;4.40;;
50301;SDS011;36550;50.472;19.744;2023-05-17T00:47:28;5.00;;;4.50;;
50301;SDS011;36550;50.472;19.744;2023-05-17T00:50:12;5.60;;;4.20;;
50301;SDS011;36550;50.472;19.744;2023-05-17T00:52:56;4.60;;;3.90;;
50301;SDS011;36550;50.472;19.744;2023-05-17T00:55:43;4.30;;;3.80;;
50301;SDS011;36550;50.472;19.744;2023-05-17T00:58:28;4.00;;;3.40;;
50301;SDS011;36550;50.472;19.744;2023-05-17T01:01:13;3.80;;;3.20;;
50301;SDS011;36550;50.472;19.744;2023-05-17T01:03:56;5.00;;;3.30;;
50301;SDS011;36550;50.472;19.744;2023-05-17T01:06:40;4.00;;;3.60;;
50301;SDS011;36550;50.472;19.744;2023-05-17T01:09:24;3.90;;;3.00;;
50301;SDS011;36550;50.472;19.744;2023-05-17T01:15:06;3.70;;;2.80;;
50301;SDS011;36550;50.472;19.744;2023-05-17T01:27:27;3.30;;;2.50;;
50301;SDS011;36550;50.472;19.744;2023-05-17T01:32:58;3.60;;;2.80;;
50301;SDS011;36550;50.472;19.744;2023-05-17T01:35:44;3.70;;;2.70;;
50301;SDS011;36550;50.472;19.744;2023-05-17T01:38:28;3.70;;;2.80;;
50301;SDS011;36550;50.472;19.744;2023-05-17T01:41:13;3.40;;;2.80;;
50301;SDS011;36550;50.472;19.744;2023-05-17T01:44:08;3.60;;;2.50;;
50301;SDS011;36550;50.472;19.744;2023-05-17T01:47:05;3.40;;;2.70;;
50301;SDS011;36550;50.472;19.744;2023-05-17T01:52:44;5.20;;;2.50;;
50301;SDS011;36550;50.472;19.744;2023-05-17T01:58:24;3.40;;;2.40;;
50301;SDS011;36550;50.472;19.744;2023-05-17T02:01:09;3.20;;;2.20;;
50301;SDS011;36550;50.472;19.744;2023-05-17T02:03:54;2.70;;;2.20;;
50301;SDS011;36550;50.472;19.744;2023-05-17T02:06:39;4.70;;;2.10;;
50301;SDS011;36550;50.472;19.744;2023-05-17T02:09:22;2.80;;;2.00;;
50301;SDS011;36550;50.472;19.744;2023-05-17T02:12:06;2.90;;;2.30;;
50301;SDS011;36550;50.472;19.744;2023-05-17T02:14:50;2.40;;;2.00;;
50301;SDS011;36550;50.472;19.744;2023-05-17T02:17:34;2.40;;;1.80;;
50301;SDS011;36550;50.472;19.744;2023-05-17T02:20:18;2.80;;;2.30;;
50301;SDS011;36550;50.472;19.744;2023-05-17T02:23:02;2.60;;;2.10;;
50301;SDS011;36550;50.472;19.744;2023-05-17T02:25:46;3.20;;;2.20;;
50301;SDS011;36550;50.472;19.744;2023-05-17T02:28:30;2.00;;;1.70;;
50301;SDS011;36550;50.472;19.744;2023-05-17T02:31:14;2.60;;;2.10;;
50301;SDS011;36550;50.472;19.744;2023-05-17T02:33:58;2.40;;;2.10;;
50301;SDS011;36550;50.472;19.744;2023-05-17T02:36:42;2.80;;;2.10;;
50301;SDS011;36550;50.472;19.744;2023-05-17T02:39:27;2.50;;;1.90;;
50301;SDS011;36550;50.472;19.744;2023-05-17T02:42:11;2.10;;;1.60;;
50301;SDS011;36550;50.472;19.744;2023-05-17T02:44:55;1.90;;;1.60;;
50301;SDS011;36550;50.472;19.744;2023-05-17T02:47:40;2.00;;;1.80;;
50301;SDS011;36550;50.472;19.744;2023-05-17T02:50:24;2.90;;;1.90;;
50301;SDS011;36550;50.472;19.744;2023-05-17T02:53:08;3.10;;;2.00;;
50301;SDS011;36550;50.472;19.744;2023-05-17T02:55:52;2.70;;;2.00;;
50301;SDS011;36550;50.472;19.744;2023-05-17T02:58:40;2.90;;;1.90;;
50301;SDS011;36550;50.472;19.744;2023-05-17T03:01:24;1.90;;;1.60;;
50301;SDS011;36550;50.472;19.744;2023-05-17T03:04:08;2.80;;;1.80;;
50301;SDS011;36550;50.472;19.744;2023-05-17T03:06:52;3.30;;;1.80;;
50301;SDS011;36550;50.472;19.744;2023-05-17T03:09:36;2.10;;;1.60;;
50301;SDS011;36550;50.472;19.744;2023-05-17T03:12:20;2.40;;;2.10;;
50301;SDS011;36550;50.472;19.744;2023-05-17T03:15:04;2.60;;;1.70;;
50301;SDS011;36550;50.472;19.744;2023-05-17T03:17:49;2.40;;;1.80;;
50301;SDS011;36550;50.472;19.744;2023-05-17T03:20:33;2.60;;;2.00;;
50301;SDS011;36550;50.472;19.744;2023-05-17T03:23:17;2.50;;;1.50;;
50301;SDS011;36550;50.472;19.744;2023-05-17T03:26:01;2.40;;;1.80;;
50301;SDS011;36550;50.472;19.744;2023-05-17T03:28:45;3.30;;;2.30;;
50301;SDS011;36550;50.472;19.744;2023-05-17T03:31:28;2.70;;;2.20;;
50301;SDS011;36550;50.472;19.744;2023-05-17T03:34:12;2.80;;;1.90;;
50301;SDS011;36550;50.472;19.744;2023-05-17T03:36:56;2.70;;;1.90;;
50301;SDS011;36550;50.472;19.744;2023-05-17T03:39:40;2.30;;;2.00;;
50301;SDS011;36550;50.472;19.744;2023-05-17T03:42:24;2.90;;;1.90;;
50301;SDS011;36550;50.472;19.744;2023-05-17T03:45:08;2.30;;;1.90;;
50301;SDS011;36550;50.472;19.744;2023-05-17T03:47:52;3.70;;;1.90;;
50301;SDS011;36550;50.472;19.744;2023-05-17T03:50:35;2.50;;;2.00;;
50301;SDS011;36550;50.472;19.744;2023-05-17T03:53:20;2.00;;;1.80;;
50301;SDS011;36550;50.472;19.744;2023-05-17T03:56:04;3.30;;;1.90;;
50301;SDS011;36550;50.472;19.744;2023-05-17T03:58:48;3.10;;;2.00;;
50301;SDS011;36550;50.472;19.744;2023-05-17T04:01:32;2.50;;;1.80;;
50301;SDS011;36550;50.472;19.744;2023-05-17T04:04:16;2.50;;;1.80;;
50301;SDS011;36550;50.472;19.744;2023-05-17T04:07:00;2.40;;;1.80;;
50301;SDS011;36550;50.472;19.744;2023-05-17T04:09:44;2.70;;;2.10;;
50301;SDS011;36550;50.472;19.744;2023-05-17T04:12:28;2.70;;;2.00;;
50301;SDS011;36550;50.472;19.744;2023-05-17T04:15:12;2.40;;;1.80;;
50301;SDS011;36550;50.472;19.744;2023-05-17T04:17:56;2.00;;;1.80;;
50301;SDS011;36550;50.472;19.744;2023-05-17T04:20:40;2.90;;;2.00;;
50301;SDS011;36550;50.472;19.744;2023-05-17T04:23:24;3.50;;;1.80;;
50301;SDS011;36550;50.472;19.744;2023-05-17T04:26:09;4.40;;;2.10;;
50301;SDS011;36550;50.472;19.744;2023-05-17T04:28:53;2.60;;;2.10;;
50301;SDS011;36550;50.472;19.744;2023-05-17T04:31:37;2.90;;;2.10;;
50301;SDS011;36550;50.472;19.744;2023-05-17T04:34:21;2.20;;;2.00;;
50301;SDS011;36550;50.472;19.744;2023-05-17T04:37:06;2.40;;;1.90;;
50301;SDS011;36550;50.472;19.744;2023-05-17T04:39:50;5.40;;;2.00;;
50301;SDS011;36550;50.472;19.744;2023-05-17T04:42:35;2.40;;;1.80;;
50301;SDS011;36550;50.472;19.744;2023-05-17T04:45:19;1.90;;;1.70;;
50301;SDS011;36550;50.472;19.744;2023-05-17T04:48:03;2.40;;;1.90;;
50301;SDS011;36550;50.472;19.744;2023-05-17T04:50:47;2.50;;;1.70;;
50301;SDS011;36550;50.472;19.744;2023-05-17T04:53:31;1.60;;;1.40;;
50301;SDS011;36550;50.472;19.744;2023-05-17T04:56:15;1.80;;;1.50;;
50301;SDS011;36550;50.472;19.744;2023-05-17T04:58:59;4.30;;;1.60;;
50301;SDS011;36550;50.472;19.744;2023-05-17T05:01:42;1.90;;;1.70;;
50301;SDS011;36550;50.472;19.744;2023-05-17T05:04:26;4.80;;;1.70;;
50301;SDS011;36550;50.472;19.744;2023-05-17T05:07:10;2.40;;;1.70;;
50301;SDS011;36550;50.472;19.744;2023-05-17T05:09:54;1.90;;;1.60;;
50301;SDS011;36550;50.472;19.744;2023-05-17T05:12:38;2.20;;;1.70;;
50301;SDS011;36550;50.472;19.744;2023-05-17T05:15:22;2.80;;;1.80;;
50301;SDS011;36550;50.472;19.744;2023-05-17T05:18:06;3.40;;;2.00;;
50301;SDS011;36550;50.472;19.744;2023-05-17T05:20:50;2.60;;;1.90;;
50301;SDS011;36550;50.472;19.744;2023-05-17T05:23:34;2.60;;;1.90;;
50301;SDS011;36550;50.472;19.744;2023-05-17T05:26:19;2.50;;;2.10;;
50301;SDS011;36550;50.472;19.744;2023-05-17T05:29:03;2.50;;;2.00;;
50301;SDS011;36550;50.472;19.744;2023-05-17T05:31:46;2.70;;;2.30;;
50301;SDS011;36550;50.472;19.744;2023-05-17T05:34:30;2.50;;;2.00;;
50301;SDS011;36550;50.472;19.744;2023-05-17T05:37:14;3.00;;;2.30;;
50301;SDS011;36550;50.472;19.744;2023-05-17T05:39:58;4.40;;;2.20;;
50301;SDS011;36550;50.472;19.744;2023-05-17T05:42:42;3.10;;;2.50;;
50301;SDS011;36550;50.472;19.744;2023-05-17T05:45:26;2.80;;;2.10;;
50301;SDS011;36550;50.472;19.744;2023-05-17T05:48:10;3.40;;;2.10;;
50301;SDS011;36550;50.472;19.744;2023-05-17T05:50:57;2.60;;;2.20;;
50301;SDS011;36550;50.472;19.744;2023-05-17T05:53:41;3.00;;;2.20;;
50301;SDS011;36550;50.472;19.744;2023-05-17T05:56:25;2.50;;;2.10;;
50301;SDS011;36550;50.472;19.744;2023-05-17T05:59:10;2.60;;;2.10;;
50301;SDS011;36550;50.472;19.744;2023-05-17T06:01:54;4.00;;;2.30;;
50301;SDS011;36550;50.472;19.744;2023-05-17T06:04:38;3.00;;;2.00;;
50301;SDS011;36550;50.472;19.744;2023-05-17T06:07:23;3.00;;;2.20;;
50301;SDS011;36550;50.472;19.744;2023-05-17T06:10:07;3.50;;;2.10;;
50301;SDS011;36550;50.472;19.744;2023-05-17T06:12:51;3.00;;;2.40;;
50301;SDS011;36550;50.472;19.744;2023-05-17T06:15:35;2.90;;;2.20;;
50301;SDS011;36550;50.472;19.744;2023-05-17T06:18:19;3.40;;;2.40;;
50301;SDS011;36550;50.472;19.744;2023-05-17T06:21:03;3.30;;;2.80;;
50301;SDS011;36550;50.472;19.744;2023-05-17T06:23:47;2.80;;;2.40;;
50301;SDS011;36550;50.472;19.744;2023-05-17T06:26:31;3.50;;;2.60;;
50301;SDS011;36550;50.472;19.744;2023-05-17T06:29:15;2.70;;;2.50;;
50301;SDS011;36550;50.472;19.744;2023-05-17T06:31:59;4.10;;;2.50;;
50301;SDS011;36550;50.472;19.744;2023-05-17T06:34:43;3.30;;;2.30;;
50301;SDS011;36550;50.472;19.744;2023-05-17T06:37:27;3.50;;;2.40;;
50301;SDS011;36550;50.472;19.744;2023-05-17T06:40:11;2.70;;;2.00;;
50301;SDS011;36550;50.472;19.744;2023-05-17T06:42:55;2.50;;;2.10;;
50301;SDS011;36550;50.472;19.744;2023-05-17T06:45:39;2.80;;;2.10;;
50301;SDS011;36550;50.472;19.744;2023-05-17T06:48:23;2.30;;;1.80;;
50301;SDS011;36550;50.472;19.744;2023-05-17T06:51:07;3.90;;;2.00;;
50301;SDS011;36550;50.472;19.744;2023-05-17T06:53:51;2.80;;;2.10;;
50301;SDS011;36550;50.472;19.744;2023-05-17T06:56:35;2.30;;;1.60;;
50301;SDS011;36550;50.472;19.744;2023-05-17T06:59:18;3.50;;;2.10;;
50301;SDS011;36550;50.472;19.744;2023-05-17T07:02:02;3.90;;;2.10;;
50301;SDS011;36550;50.472;19.744;2023-05-17T07:04:46;2.50;;;2.00;;
50301;SDS011;36550;50.472;19.744;2023-05-17T07:07:30;3.10;;;2.20;;
50301;SDS011;36550;50.472;19.744;2023-05-17T07:10:14;2.70;;;2.10;;
50301;SDS011;36550;50.472;19.744;2023-05-17T07:12:59;2.60;;;2.10;;
50301;SDS011;36550;50.472;19.744;2023-05-17T07:15:43;2.40;;;2.00;;
50301;SDS011;36550;50.472;19.744;2023-05-17T07:18:27;3.20;;;2.70;;
50301;SDS011;36550;50.472;19.744;2023-05-17T07:21:11;3.70;;;2.60;;
50301;SDS011;36550;50.472;19.744;2023-05-17T07:23:55;5.00;;;2.90;;
50301;SDS011;36550;50.472;19.744;2023-05-17T07:26:39;4.90;;;3.20;;
50301;SDS011;36550;50.472;19.744;2023-05-17T07:29:23;3.60;;;2.80;;
50301;SDS011;36550;50.472;19.744;2023-05-17T07:32:07;5.00;;;2.50;;
50301;SDS011;36550;50.472;19.744;2023-05-17T07:34:54;3.70;;;3.00;;
50301;SDS011;36550;50.472;19.744;2023-05-17T07:37:38;3.60;;;2.50;;
50301;SDS011;36550;50.472;19.744;2023-05-17T07:40:22;4.10;;;2.60;;
50301;SDS011;36550;50.472;19.744;2023-05-17T07:43:07;5.00;;;3.30;;
50301;SDS011;36550;50.472;19.744;2023-05-17T07:45:51;4.10;;;3.00;;
50301;SDS011;36550;50.472;19.744;2023-05-17T07:48:35;4.10;;;2.70;;
50301;SDS011;36550;50.472;19.744;2023-05-17T07:51:19;4.30;;;3.00;;
50301;SDS011;36550;50.472;19.744;2023-05-17T07:54:02;3.60;;;2.60;;
50301;SDS011;36550;50.472;19.744;2023-05-17T07:56:47;3.90;;;3.20;;
50301;SDS011;36550;50.472;19.744;2023-05-17T07:59:30;8.00;;;3.10;;
50301;SDS011;36550;50.472;19.744;2023-05-17T08:02:15;3.80;;;2.60;;
50301;SDS011;36550;50.472;19.744;2023-05-17T08:04:59;4.20;;;2.80;;
50301;SDS011;36550;50.472;19.744;2023-05-17T08:07:43;3.50;;;2.80;;
50301;SDS011;36550;50.472;19.744;2023-05-17T08:10:26;4.60;;;2.90;;
50301;SDS011;36550;50.472;19.744;2023-05-17T08:13:10;5.70;;;3.00;;
50301;SDS011;36550;50.472;19.744;2023-05-17T08:15:54;4.50;;;3.50;;
50301;SDS011;36550;50.472;19.744;2023-05-17T08:18:40;5.90;;;3.90;;
50301;SDS011;36550;50.472;19.744;2023-05-17T08:21:25;7.70;;;4.40;;
50301;SDS011;36550;50.472;19.744;2023-05-17T08:24:09;6.90;;;5.00;;
50301;SDS011;36550;50.472;19.744;2023-05-17T08:26:54;6.00;;;4.60;;
50301;SDS011;36550;50.472;19.744;2023-05-17T08:29:39;7.80;;;4.10;;
50301;SDS011;36550;50.472;19.744;2023-05-17T08:32:23;6.70;;;5.30;;
50301;SDS011;36550;50.472;19.744;2023-05-17T08:35:07;9.70;;;6.00;;
50301;SDS011;36550;50.472;19.744;2023-05-17T08:37:51;9.90;;;5.80;;
50301;SDS011;36550;50.472;19.744;2023-05-17T08:40:36;8.90;;;6.00;;
50301;SDS011;36550;50.472;19.744;2023-05-17T08:43:21;10.70;;;6.70;;
50301;SDS011;36550;50.472;19.744;2023-05-17T08:46:06;9.30;;;6.30;;
50301;SDS011;36550;50.472;19.744;2023-05-17T08:48:52;9.60;;;5.70;;
50301;SDS011;36550;50.472;19.744;2023-05-17T08:51:39;11.30;;;6.10;;
50301;SDS011;36550;50.472;19.744;2023-05-17T08:54:24;9.50;;;5.10;;
50301;SDS011;36550;50.472;19.744;2023-05-17T08:57:08;11.60;;;5.70;;
50301;SDS011;36550;50.472;19.744;2023-05-17T08:59:53;8.80;;;5.30;;
50301;SDS011;36550;50.472;19.744;2023-05-17T09:02:37;8.90;;;5.20;;
50301;SDS011;36550;50.472;19.744;2023-05-17T09:05:25;7.70;;;5.10;;
50301;SDS011;36550;50.472;19.744;2023-05-17T09:08:10;7.80;;;4.80;;
50301;SDS011;36550;50.472;19.744;2023-05-17T09:10:56;9.40;;;5.40;;
50301;SDS011;36550;50.472;19.744;2023-05-17T09:13:42;8.70;;;5.20;;
50301;SDS011;36550;50.472;19.744;2023-05-17T09:16:27;8.10;;;5.00;;
50301;SDS011;36550;50.472;19.744;2023-05-17T09:19:13;8.50;;;5.20;;
50301;SDS011;36550;50.472;19.744;2023-05-17T09:21:59;11.90;;;6.10;;
50301;SDS011;36550;50.472;19.744;2023-05-17T09:24:45;8.90;;;5.60;;
50301;SDS011;36550;50.472;19.744;2023-05-17T09:27:32;11.70;;;6.70;;
50301;SDS011;36550;50.472;19.744;2023-05-17T09:30:16;12.80;;;6.60;;
50301;SDS011;36550;50.472;19.744;2023-05-17T09:33:04;12.80;;;6.30;;
50301;SDS011;36550;50.472;19.744;2023-05-17T09:35:49;10.50;;;6.60;;
50301;SDS011;36550;50.472;19.744;2023-05-17T09:38:33;13.50;;;7.10;;
50301;SDS011;36550;50.472;19.744;2023-05-17T09:41:17;11.00;;;6.40;;
50301;SDS011;36550;50.472;19.744;2023-05-17T09:44:02;10.10;;;6.30;;
50301;SDS011;36550;50.472;19.744;2023-05-17T09:46:51;10.20;;;6.40;;
50301;SDS011;36550;50.472;19.744;2023-05-17T09:49:35;11.80;;;7.20;;
50301;SDS011;36550;50.472;19.744;2023-05-17T09:52:20;8.50;;;6.60;;
50301;SDS011;36550;50.472;19.744;2023-05-17T09:55:04;10.60;;;6.80;;
50301;SDS011;36550;50.472;19.744;2023-05-17T09:57:48;8.20;;;5.80;;
50301;SDS011;36550;50.472;19.744;2023-05-17T10:00:32;9.40;;;6.10;;
50301;SDS011;36550;50.472;19.744;2023-05-17T10:03:17;11.80;;;7.00;;
50301;SDS011;36550;50.472;19.744;2023-05-17T10:06:02;10.30;;;7.00;;
50301;SDS011;36550;50.472;19.744;2023-05-17T10:08:50;10.60;;;6.00;;
50301;SDS011;36550;50.472;19.744;2023-05-17T10:11:39;7.40;;;5.50;;
50301;SDS011;36550;50.472;19.744;2023-05-17T10:14:27;7.80;;;5.00;;
50301;SDS011;36550;50.472;19.744;2023-05-17T10:17:16;7.80;;;5.10;;
50301;SDS011;36550;50.472;19.744;2023-05-17T10:20:02;8.60;;;5.40;;
50301;SDS011;36550;50.472;19.744;2023-05-17T10:22:49;8.40;;;4.80;;
50301;SDS011;36550;50.472;19.744;2023-05-17T10:25:33;6.00;;;4.60;;
50301;SDS011;36550;50.472;19.744;2023-05-17T10:28:18;5.10;;;4.10;;
50301;SDS011;36550;50.472;19.744;2023-05-17T10:31:03;6.50;;;4.80;;
50301;SDS011;36550;50.472;19.744;2023-05-17T10:33:48;5.40;;;4.00;;
50301;SDS011;36550;50.472;19.744;2023-05-17T10:36:34;4.90;;;3.90;;
50301;SDS011;36550;50.472;19.744;2023-05-17T10:39:18;6.50;;;4.10;;
50301;SDS011;36550;50.472;19.744;2023-05-17T10:42:07;6.00;;;4.30;;
50301;SDS011;36550;50.472;19.744;2023-05-17T10:44:52;7.00;;;4.00;;
50301;SDS011;36550;50.472;19.744;2023-05-17T10:47:38;6.60;;;4.80;;
50301;SDS011;36550;50.472;19.744;2023-05-17T10:50:25;6.30;;;4.30;;
50301;SDS011;36550;50.472;19.744;2023-05-17T10:53:09;5.90;;;4.30;;
50301;SDS011;36550;50.472;19.744;2023-05-17T10:55:56;5.30;;;3.80;;
50301;SDS011;36550;50.472;19.744;2023-05-17T10:58:41;5.80;;;4.20;;
50301;SDS011;36550;50.472;19.744;2023-05-17T11:04:42;6.30;;;4.60;;
50301;SDS011;36550;50.472;19.744;2023-05-17T11:07:33;7.70;;;4.70;;
50301;SDS011;36550;50.472;19.744;2023-05-17T11:10:19;6.80;;;4.60;;
50301;SDS011;36550;50.472;19.744;2023-05-17T11:13:20;6.40;;;4.90;;
50301;SDS011;36550;50.472;19.744;2023-05-17T11:16:08;9.40;;;5.60;;
50301;SDS011;36550;50.472;19.744;2023-05-17T11:18:53;8.00;;;5.10;;
50301;SDS011;36550;50.472;19.744;2023-05-17T11:21:46;6.70;;;4.60;;
50301;SDS011;36550;50.472;19.744;2023-05-17T11:24:31;7.70;;;5.70;;
50301;SDS011;36550;50.472;19.744;2023-05-17T11:27:15;8.40;;;5.30;;
50301;SDS011;36550;50.472;19.744;2023-05-17T11:30:08;9.00;;;5.00;;
50301;SDS011;36550;50.472;19.744;2023-05-17T11:35:52;7.10;;;4.90;;
50301;SDS011;36550;50.472;19.744;2023-05-17T11:38:36;5.10;;;4.10;;
50301;SDS011;36550;50.472;19.744;2023-05-17T11:41:21;7.80;;;3.60;;
50301;SDS011;36550;50.472;19.744;2023-05-17T11:44:05;6.70;;;4.40;;
50301;SDS011;36550;50.472;19.744;2023-05-17T11:46:50;7.90;;;4.40;;
50301;SDS011;36550;50.472;19.744;2023-05-17T11:49:36;7.40;;;4.50;;
50301;SDS011;36550;50.472;19.744;2023-05-17T11:52:21;10.90;;;5.00;;
50301;SDS011;36550;50.472;19.744;2023-05-17T11:55:05;6.00;;;4.40;;
50301;SDS011;36550;50.472;19.744;2023-05-17T11:57:50;6.80;;;3.50;;
50301;SDS011;36550;50.472;19.744;2023-05-17T12:00:38;7.80;;;3.50;;
50301;SDS011;36550;50.472;19.744;2023-05-17T12:03:27;5.30;;;3.20;;
50301;SDS011;36550;50.472;19.744;2023-05-17T12:06:12;6.30;;;3.10;;
50301;SDS011;36550;50.472;19.744;2023-05-17T12:08:58;6.50;;;2.90;;
50301;SDS011;36550;50.472;19.744;2023-05-17T12:11:42;8.30;;;3.40;;
50301;SDS011;36550;50.472;19.744;2023-05-17T12:14:26;5.80;;;3.00;;
50301;SDS011;36550;50.472;19.744;2023-05-17T12:17:12;6.30;;;3.50;;
50301;SDS011;36550;50.472;19.744;2023-05-17T12:20:07;8.80;;;3.50;;
50301;SDS011;36550;50.472;19.744;2023-05-17T12:22:52;9.90;;;4.10;;
50301;SDS011;36550;50.472;19.744;2023-05-17T12:25:37;10.20;;;3.40;;
50301;SDS011;36550;50.472;19.744;2023-05-17T12:28:21;7.20;;;3.10;;
50301;SDS011;36550;50.472;19.744;2023-05-17T12:31:10;8.90;;;3.00;;
50301;SDS011;36550;50.472;19.744;2023-05-17T12:33:56;6.70;;;3.10;;
50301;SDS011;36550;50.472;19.744;2023-05-17T12:36:42;7.50;;;2.90;;
50301;SDS011;36550;50.472;19.744;2023-05-17T12:39:27;8.50;;;3.20;;
50301;SDS011;36550;50.472;19.744;2023-05-17T12:42:13;7.30;;;2.90;;
50301;SDS011;36550;50.472;19.744;2023-05-17T12:44:58;7.60;;;2.80;;
50301;SDS011;36550;50.472;19.744;2023-05-17T12:47:43;10.40;;;3.20;;
50301;SDS011;36550;50.472;19.744;2023-05-17T12:50:27;5.90;;;3.10;;
50301;SDS011;36550;50.472;19.744;2023-05-17T12:53:15;10.60;;;4.70;;
50301;SDS011;36550;50.472;19.744;2023-05-17T12:55:58;7.90;;;3.70;;
50301;SDS011;36550;50.472;19.744;2023-05-17T12:58:43;7.20;;;3.80;;
50301;SDS011;36550;50.472;19.744;2023-05-17T13:01:31;6.90;;;3.50;;
50301;SDS011;36550;50.472;19.744;2023-05-17T13:04:19;8.00;;;3.10;;
50301;SDS011;36550;50.472;19.744;2023-05-17T13:07:03;6.70;;;3.40;;
50301;SDS011;36550;50.472;19.744;2023-05-17T13:09:48;7.80;;;3.60;;
50301;SDS011;36550;50.472;19.744;2023-05-17T13:12:32;13.20;;;5.40;;
50301;SDS011;36550;50.472;19.744;2023-05-17T13:15:16;9.00;;;3.20;;
50301;SDS011;36550;50.472;19.744;2023-05-17T13:18:00;10.50;;;4.10;;
50301;SDS011;36550;50.472;19.744;2023-05-17T13:20:56;7.40;;;3.30;;
50301;SDS011;36550;50.472;19.744;2023-05-17T13:23:41;11.80;;;3.50;;
50301;SDS011;36550;50.472;19.744;2023-05-17T13:26:26;7.60;;;3.30;;
50301;SDS011;36550;50.472;19.744;2023-05-17T13:29:10;9.90;;;3.60;;
50301;SDS011;36550;50.472;19.744;2023-05-17T13:31:54;8.90;;;3.60;;
50301;SDS011;36550;50.472;19.744;2023-05-17T13:34:38;8.50;;;3.80;;
50301;SDS011;36550;50.472;19.744;2023-05-17T13:37:23;7.70;;;4.00;;
50301;SDS011;36550;50.472;19.744;2023-05-17T13:40:07;6.80;;;3.20;;
50301;SDS011;36550;50.472;19.744;2023-05-17T13:42:51;7.80;;;3.30;;
50301;SDS011;36550;50.472;19.744;2023-05-17T13:45:35;7.70;;;3.80;;
50301;SDS011;36550;50.472;19.744;2023-05-17T13:48:19;10.20;;;4.10;;
50301;SDS011;36550;50.472;19.744;2023-05-17T13:51:03;8.30;;;3.90;;
50301;SDS011;36550;50.472;19.744;2023-05-17T13:53:47;8.00;;;4.10;;
50301;SDS011;36550;50.472;19.744;2023-05-17T13:56:31;7.90;;;3.50;;
50301;SDS011;36550;50.472;19.744;2023-05-17T13:59:15;8.90;;;4.30;;
50301;SDS011;36550;50.472;19.744;2023-05-17T14:01:59;8.90;;;4.50;;
50301;SDS011;36550;50.472;19.744;2023-05-17T14:04:42;7.00;;;4.50;;
50301;SDS011;36550;50.472;19.744;2023-05-17T14:07:27;9.20;;;3.60;;
50301;SDS011;36550;50.472;19.744;2023-05-17T14:10:11;7.60;;;3.80;;
50301;SDS011;36550;50.472;19.744;2023-05-17T14:12:55;8.60;;;4.00;;
50301;SDS011;36550;50.472;19.744;2023-05-17T14:15:40;7.70;;;4.10;;
50301;SDS011;36550;50.472;19.744;2023-05-17T14:18:23;9.40;;;3.30;;
50301;SDS011;36550;50.472;19.744;2023-05-17T14:21:07;7.80;;;3.70;;
50301;SDS011;36550;50.472;19.744;2023-05-17T14:23:51;6.90;;;3.70;;
50301;SDS011;36550;50.472;19.744;2023-05-17T14:26:35;10.30;;;4.10;;
50301;SDS011;36550;50.472;19.744;2023-05-17T14:29:19;10.20;;;4.10;;
50301;SDS011;36550;50.472;19.744;2023-05-17T14:32:04;8.20;;;4.00;;
50301;SDS011;36550;50.472;19.744;2023-05-17T14:34:49;10.70;;;3.90;;
50301;SDS011;36550;50.472;19.744;2023-05-17T14:37:33;8.30;;;4.10;;
50301;SDS011;36550;50.472;19.744;2023-05-17T14:40:18;8.50;;;3.70;;
50301;SDS011;36550;50.472;19.744;2023-05-17T14:43:04;10.90;;;4.60;;
50301;SDS011;36550;50.472;19.744;2023-05-17T14:45:48;9.40;;;4.20;;
50301;SDS011;36550;50.472;19.744;2023-05-17T14:48:32;9.80;;;5.30;;
50301;SDS011;36550;50.472;19.744;2023-05-17T14:51:17;12.90;;;5.50;;
50301;SDS011;36550;50.472;19.744;2023-05-17T14:54:01;13.10;;;6.90;;
50301;SDS011;36550;50.472;19.744;2023-05-17T14:56:46;20.00;;;7.50;;
50301;SDS011;36550;50.472;19.744;2023-05-17T14:59:30;11.10;;;4.60;;
50301;SDS011;36550;50.472;19.744;2023-05-17T15:02:15;10.20;;;4.00;;
50301;SDS011;36550;50.472;19.744;2023-05-17T15:04:59;12.60;;;4.00;;
50301;SDS011;36550;50.472;19.744;2023-05-17T15:07:46;8.50;;;4.30;;
50301;SDS011;36550;50.472;19.744;2023-05-17T15:10:31;12.50;;;5.90;;
50301;SDS011;36550;50.472;19.744;2023-05-17T15:13:15;12.40;;;5.30;;
50301;SDS011;36550;50.472;19.744;2023-05-17T15:16:01;12.00;;;5.50;;
50301;SDS011;36550;50.472;19.744;2023-05-17T15:18:45;12.60;;;4.90;;
50301;SDS011;36550;50.472;19.744;2023-05-17T15:21:30;11.40;;;5.10;;
50301;SDS011;36550;50.472;19.744;2023-05-17T15:24:14;11.10;;;4.70;;
50301;SDS011;36550;50.472;19.744;2023-05-17T15:26:59;12.80;;;4.10;;
50301;SDS011;36550;50.472;19.744;2023-05-17T15:29:43;9.90;;;4.20;;
50301;SDS011;36550;50.472;19.744;2023-05-17T15:32:27;6.00;;;3.60;;
50301;SDS011;36550;50.472;19.744;2023-05-17T15:35:11;11.20;;;4.50;;
50301;SDS011;36550;50.472;19.744;2023-05-17T15:37:56;11.50;;;4.50;;
50301;SDS011;36550;50.472;19.744;2023-05-17T15:40:40;9.00;;;4.10;;
50301;SDS011;36550;50.472;19.744;2023-05-17T15:43:24;13.40;;;4.50;;
50301;SDS011;36550;50.472;19.744;2023-05-17T15:46:08;10.20;;;4.70;;
50301;SDS011;36550;50.472;19.744;2023-05-17T15:48:52;12.60;;;5.50;;
50301;SDS011;36550;50.472;19.744;2023-05-17T15:51:36;12.00;;;4.80;;
50301;SDS011;36550;50.472;19.744;2023-05-17T15:54:20;14.40;;;4.80;;
50301;SDS011;36550;50.472;19.744;2023-05-17T15:57:04;11.90;;;4.80;;
50301;SDS011;36550;50.472;19.744;2023-05-17T15:59:48;10.80;;;5.10;;
50301;SDS011;36550;50.472;19.744;2023-05-17T16:02:32;13.10;;;5.00;;
50301;SDS011;36550;50.472;19.744;2023-05-17T16:05:16;9.80;;;5.00;;
50301;SDS011;36550;50.472;19.744;2023-05-17T16:08:00;10.70;;;3.90;;
50301;SDS011;36550;50.472;19.744;2023-05-17T16:10:44;11.40;;;5.40;;
50301;SDS011;36550;50.472;19.744;2023-05-17T16:13:29;14.40;;;5.40;;
50301;SDS011;36550;50.472;19.744;2023-05-17T16:16:13;12.20;;;5.20;;
50301;SDS011;36550;50.472;19.744;2023-05-17T16:18:58;14.50;;;6.50;;
50301;SDS011;36550;50.472;19.744;2023-05-17T16:21:41;11.40;;;5.40;;
50301;SDS011;36550;50.472;19.744;2023-05-17T16:24:25;12.90;;;5.30;;
50301;SDS011;36550;50.472;19.744;2023-05-17T16:27:10;11.30;;;5.20;;
50301;SDS011;36550;50.472;19.744;2023-05-17T16:29:54;12.80;;;5.10;;
50301;SDS011;36550;50.472;19.744;2023-05-17T16:32:38;35.40;;;15.00;;
50301;SDS011;36550;50.472;19.744;2023-05-17T16:35:22;14.50;;;6.20;;
50301;SDS011;36550;50.472;19.744;2023-05-17T16:38:06;15.60;;;5.70;;
50301;SDS011;36550;50.472;19.744;2023-05-17T16:40:49;13.70;;;5.70;;